Time;durP1;ratioP1;P1;durP2;ratioP2;P2;SDS_P1;SDS_P2;PMS_P1;PMS_P2;Temp;Humidity;BMP_temperature;BMP_pressure;BME280_temperature;BME280_humidity;BME280_pressure;Samples;Min_cycle;Max_cycle;Signal;HPM_P1;HPM_P2
2023/04/30 00:01:06;;;;;;;5.10;3.20;;;;;;;;;;4982965;28;20046;-79
2023/04/30 00:03:32;;;;;;;6.85;2.70;;;;;;;;;;4960745;28;20454;-79
2023/04/30 00:05:58;;;;;;;5.68;2.67;;;;;;;;;;4986865;28;20042;-79
2023/04/30 00:08:25;;;;;;;4.88;2.92;;;;;;;;;;4968260;28;20490;-79
2023/04/30 00:10:51;;;;;;;5.53;3.13;;;;;;;;;;4981331;28;20035;-80
2023/04/30 00:13:17;;;;;;;5.95;2.70;;;;;;;;;;4983500;28;20054;-79
2023/04/30 00:15:43;;;;;;;6.47;3.10;;;;;;;;;;4986595;28;20108;-79
2023/04/30 00:18:10;;;;;;;7.00;3.45;;;;;;;;;;4987599;28;20042;-79
2023/04/30 00:20:36;;;;;;;8.15;3.10;;;;;;;;;;4969149;28;20137;-79
2023/04/30 00:23:02;;;;;;;6.57;3.47;;;;;;;;;;4978234;28;20523;-79
2023/04/30 00:25:28;;;;;;;5.53;3.15;;;;;;;;;;4984040;28;20061;-80
2023/04/30 00:27:54;;;;;;;6.63;3.38;;;;;;;;;;4985342;28;20038;-80
2023/04/30 00:30:20;;;;;;;7.80;3.28;;;;;;;;;;4964067;28;20090;-79
2023/04/30 00:32:46;;;;;;;4.55;3.17;;;;;;;;;;4968511;28;20151;-79
2023/04/30 00:35:12;;;;;;;7.43;4.00;;;;;;;;;;4970275;28;20042;-79
2023/04/30 00:37:38;;;;;;;6.22;3.30;;;;;;;;;;4966795;28;20101;-79
2023/04/30 00:40:04;;;;;;;8.05;3.00;;;;;;;;;;4986144;28;20065;-79
2023/04/30 00:42:30;;;;;;;4.38;3.33;;;;;;;;;;4966172;28;20050;-79
2023/04/30 00:44:56;;;;;;;4.95;3.35;;;;;;;;;;4985307;28;20042;-79
2023/04/30 00:47:22;;;;;;;4.40;3.33;;;;;;;;;;4962707;28;20139;-79
2023/04/30 00:49:48;;;;;;;7.63;3.50;;;;;;;;;;4983289;28;20173;-79
2023/04/30 00:52:14;;;;;;;5.75;3.30;;;;;;;;;;4968447;28;20120;-79
2023/04/30 00:54:40;;;;;;;5.40;3.08;;;;;;;;;;4977752;28;20046;-79
2023/04/30 00:57:07;;;;;;;6.20;3.20;;;;;;;;;;4991838;28;20054;-79
2023/04/30 00:59:33;;;;;;;7.32;3.22;;;;;;;;;;5006680;28;20096;-79
2023/04/30 01:01:59;;;;;;;6.82;3.60;;;;;;;;;;5003219;28;20473;-79
2023/04/30 01:04:26;;;;;;;8.23;3.33;;;;;;;;;;4999560;28;20198;-79
2023/04/30 01:06:52;;;;;;;5.93;3.10;;;;;;;;;;5005213;28;20441;-79
2023/04/30 01:09:18;;;;;;;8.23;3.42;;;;;;;;;;5007880;28;20068;-79
2023/04/30 01:12:02;;;;;;;6.82;3.67;;;;;;;;;;5004771;28;20046;-79
2023/04/30 01:14:30;;;;;;;6.57;3.50;;;;;;;;;;5001298;28;20504;-79
2023/04/30 01:17:05;;;;;;;9.27;3.63;;;;;;;;;;5004351;28;20508;-79
2023/04/30 01:19:40;;;;;;;3.83;3.10;;;;;;;;;;5002133;28;20128;-79
2023/04/30 01:22:08;;;;;;;5.80;3.17;;;;;;;;;;4998673;28;20050;-79
2023/04/30 01:25:03;;;;;;;6.88;2.85;;;;;;;;;;5004573;28;20042;-79
2023/04/30 01:27:40;;;;;;;7.05;3.50;;;;;;;;;;5005231;28;20073;-79
2023/04/30 01:30:07;;;;;;;6.25;2.90;;;;;;;;;;5002273;28;20140;-79
2023/04/30 01:32:33;;;;;;;8.07;3.40;;;;;;;;;;4998950;28;20510;-79
2023/04/30 01:34:59;;;;;;;9.23;3.78;;;;;;;;;;5002385;28;20088;-79
2023/04/30 01:37:40;;;;;;;10.27;3.40;;;;;;;;;;5002780;28;20414;-79
2023/04/30 01:40:12;;;;;;;6.95;3.53;;;;;;;;;;4998266;28;20066;-79
2023/04/30 01:42:45;;;;;;;6.10;3.50;;;;;;;;;;4999803;28;20042;-79
2023/04/30 01:45:16;;;;;;;4.57;3.60;;;;;;;;;;5000537;28;20084;-79
2023/04/30 01:47:48;;;;;;;3.38;2.92;;;;;;;;;;5001848;28;20053;-79
2023/04/30 01:50:17;;;;;;;8.70;3.60;;;;;;;;;;5005340;28;20817;-79
2023/04/30 01:52:47;;;;;;;4.88;3.45;;;;;;;;;;5008980;28;20438;-79
2023/04/30 01:55:13;;;;;;;6.35;3.58;;;;;;;;;;5002613;28;20401;-79
2023/04/30 01:57:43;;;;;;;7.03;3.88;;;;;;;;;;4990900;28;20149;-79
2023/04/30 02:00:13;;;;;;;4.03;3.65;;;;;;;;;;4969878;28;20474;-79
2023/04/30 02:02:40;;;;;;;8.43;4.20;;;;;;;;;;4985158;28;20054;-79
2023/04/30 02:05:06;;;;;;;6.28;3.72;;;;;;;;;;4972461;28;20089;-79
2023/04/30 02:07:42;;;;;;;7.07;4.78;;;;;;;;;;4985458;28;20105;-79
2023/04/30 02:10:10;;;;;;;9.70;4.90;;;;;;;;;;4985476;28;20568;-79
2023/04/30 02:12:36;;;;;;;8.00;4.25;;;;;;;;;;4964999;28;20050;-79
2023/04/30 02:15:03;;;;;;;7.28;4.30;;;;;;;;;;4991887;28;20058;-79
2023/04/30 02:17:30;;;;;;;7.13;4.05;;;;;;;;;;4974305;28;20054;-79
2023/04/30 02:19:56;;;;;;;6.63;4.32;;;;;;;;;;4988047;28;20618;-79
2023/04/30 02:22:22;;;;;;;7.20;4.18;;;;;;;;;;4989842;28;20050;-79
2023/04/30 02:24:48;;;;;;;7.43;4.72;;;;;;;;;;4986829;28;20038;-79
2023/04/30 02:27:15;;;;;;;8.07;4.70;;;;;;;;;;4964649;28;20046;-79
2023/04/30 02:29:41;;;;;;;8.55;4.10;;;;;;;;;;4972094;28;20057;-79
2023/04/30 02:32:07;;;;;;;5.63;4.22;;;;;;;;;;4990052;28;20090;-79
2023/04/30 02:34:33;;;;;;;6.53;4.20;;;;;;;;;;4964656;28;20399;-79
2023/04/30 02:36:59;;;;;;;7.68;4.88;;;;;;;;;;4966101;28;20046;-79
2023/04/30 02:39:25;;;;;;;7.22;4.60;;;;;;;;;;4991292;28;20046;-79
2023/04/30 02:41:51;;;;;;;5.45;4.15;;;;;;;;;;4991941;28;20121;-79
2023/04/30 02:44:17;;;;;;;7.03;4.45;;;;;;;;;;4983826;28;20140;-79
2023/04/30 02:46:44;;;;;;;8.90;5.00;;;;;;;;;;4987565;28;20045;-79
2023/04/30 02:49:09;;;;;;;6.82;4.05;;;;;;;;;;4965326;28;20068;-79
2023/04/30 02:51:35;;;;;;;8.80;4.30;;;;;;;;;;4989328;28;20047;-79
2023/04/30 02:54:01;;;;;;;6.57;4.18;;;;;;;;;;4986950;28;20426;-79
2023/04/30 02:56:28;;;;;;;8.38;4.38;;;;;;;;;;4986445;28;20077;-79
2023/04/30 02:58:54;;;;;;;6.20;4.40;;;;;;;;;;5008275;28;20472;-79
2023/04/30 03:01:20;;;;;;;6.95;4.35;;;;;;;;;;5004353;28;20049;-79
2023/04/30 03:03:46;;;;;;;8.90;5.32;;;;;;;;;;5002949;28;20038;-79
2023/04/30 03:06:12;;;;;;;8.95;5.05;;;;;;;;;;5006798;28;20076;-79
2023/04/30 03:08:38;;;;;;;7.60;4.65;;;;;;;;;;5005543;28;20081;-79
2023/04/30 03:11:04;;;;;;;9.80;5.00;;;;;;;;;;5004776;28;20044;-79
2023/04/30 03:13:30;;;;;;;6.38;4.55;;;;;;;;;;5002296;28;20050;-79
2023/04/30 03:15:59;;;;;;;7.45;4.40;;;;;;;;;;5004583;28;20097;-79
2023/04/30 03:18:26;;;;;;;7.90;5.15;;;;;;;;;;5003922;28;20038;-79
2023/04/30 03:20:52;;;;;;;7.30;5.03;;;;;;;;;;5002150;28;20096;-79
2023/04/30 03:23:18;;;;;;;5.97;4.82;;;;;;;;;;5000704;28;20053;-79
2023/04/30 03:25:44;;;;;;;8.10;4.40;;;;;;;;;;5004294;28;20034;-79
2023/04/30 03:28:10;;;;;;;7.93;5.15;;;;;;;;;;5006852;28;20077;-79
2023/04/30 03:30:36;;;;;;;9.13;5.30;;;;;;;;;;5003753;28;20477;-79
2023/04/30 03:33:05;;;;;;;6.95;4.68;;;;;;;;;;5015292;28;20069;-79
2023/04/30 03:35:31;;;;;;;5.90;4.57;;;;;;;;;;5005422;28;20057;-79
2023/04/30 03:37:57;;;;;;;9.07;4.63;;;;;;;;;;4999359;28;20100;-79
2023/04/30 03:40:23;;;;;;;5.85;4.65;;;;;;;;;;5001461;28;20067;-79
2023/04/30 03:42:49;;;;;;;8.75;4.93;;;;;;;;;;5002579;28;20401;-78
2023/04/30 03:45:15;;;;;;;9.07;5.07;;;;;;;;;;5001193;28;20034;-79
2023/04/30 03:47:42;;;;;;;9.45;5.13;;;;;;;;;;4995831;28;20115;-79
2023/04/30 03:50:08;;;;;;;6.72;5.00;;;;;;;;;;5004665;28;20048;-79
2023/04/30 03:52:35;;;;;;;9.23;5.22;;;;;;;;;;5000481;28;20041;-79
2023/04/30 03:55:02;;;;;;;7.82;5.50;;;;;;;;;;4999135;28;20077;-79
2023/04/30 03:57:28;;;;;;;9.02;5.15;;;;;;;;;;4988065;28;20105;-79
2023/04/30 03:59:54;;;;;;;7.53;4.70;;;;;;;;;;4983678;28;20101;-79
2023/04/30 04:02:20;;;;;;;6.55;4.82;;;;;;;;;;4961478;28;20073;-79
2023/04/30 04:04:46;;;;;;;10.80;5.75;;;;;;;;;;4962504;28;20061;-79
2023/04/30 04:07:13;;;;;;;9.68;5.32;;;;;;;;;;4984695;28;20061;-79
2023/04/30 04:09:40;;;;;;;12.02;5.13;;;;;;;;;;4987126;28;20046;-78
2023/04/30 04:12:06;;;;;;;8.25;4.93;;;;;;;;;;4982300;28;20510;-79
2023/04/30 04:14:32;;;;;;;6.32;4.93;;;;;;;;;;4969612;28;20566;-79
2023/04/30 04:17:04;;;;;;;10.65;5.80;;;;;;;;;;4984758;28;20065;-79
2023/04/30 04:19:30;;;;;;;9.38;5.07;;;;;;;;;;4982718;28;20074;-79
2023/04/30 04:21:56;;;;;;;10.15;5.38;;;;;;;;;;4988854;28;20046;-79
2023/04/30 04:24:24;;;;;;;7.57;4.97;;;;;;;;;;4972271;28;20046;-79
2023/04/30 04:26:50;;;;;;;9.00;4.88;;;;;;;;;;4971756;28;20053;-79
2023/04/30 04:29:17;;;;;;;8.07;5.20;;;;;;;;;;4988227;28;20089;-79
2023/04/30 04:31:43;;;;;;;6.57;4.85;;;;;;;;;;4984689;28;20038;-79
2023/04/30 04:34:09;;;;;;;8.35;5.05;;;;;;;;;;4961565;28;20053;-79
2023/04/30 04:36:35;;;;;;;10.52;5.80;;;;;;;;;;4983939;28;20042;-78
2023/04/30 04:39:01;;;;;;;9.52;5.68;;;;;;;;;;4971746;28;20141;-79
2023/04/30 04:41:31;;;;;;;8.35;4.72;;;;;;;;;;4968812;28;20050;-79
2023/04/30 04:43:58;;;;;;;8.00;5.68;;;;;;;;;;4984034;28;20129;-79
2023/04/30 04:46:24;;;;;;;10.73;7.15;;;;;;;;;;4983324;28;20043;-79
2023/04/30 04:48:50;;;;;;;8.75;5.22;;;;;;;;;;4969301;28;20061;-79
2023/04/30 04:51:16;;;;;;;7.70;4.88;;;;;;;;;;4972487;28;20078;-79
2023/04/30 04:53:42;;;;;;;8.90;5.25;;;;;;;;;;4985114;28;20035;-79
2023/04/30 04:56:08;;;;;;;7.00;5.07;;;;;;;;;;4980935;28;20070;-79
2023/04/30 04:58:35;;;;;;;10.38;4.80;;;;;;;;;;5003314;28;20050;-79
2023/04/30 05:01:01;;;;;;;9.90;5.43;;;;;;;;;;5004362;28;20508;-79
2023/04/30 05:03:28;;;;;;;10.27;4.63;;;;;;;;;;5004293;28;20045;-79
2023/04/30 05:05:54;;;;;;;9.82;5.40;;;;;;;;;;5003665;28;20061;-79
2023/04/30 05:08:20;;;;;;;9.73;4.53;;;;;;;;;;5000727;28;20060;-79
2023/04/30 05:10:46;;;;;;;8.80;5.10;;;;;;;;;;5006588;28;20065;-79
2023/04/30 05:13:12;;;;;;;8.82;4.90;;;;;;;;;;5006616;28;20042;-79
2023/04/30 05:15:38;;;;;;;7.15;4.30;;;;;;;;;;5001948;28;20397;-79
2023/04/30 05:18:04;;;;;;;12.65;5.30;;;;;;;;;;5000931;28;20045;-79
2023/04/30 05:20:30;;;;;;;9.00;4.82;;;;;;;;;;5001197;28;20121;-79
2023/04/30 05:22:56;;;;;;;6.95;5.03;;;;;;;;;;5001996;28;20100;-79
2023/04/30 05:25:22;;;;;;;11.75;5.95;;;;;;;;;;5005450;28;20493;-79
2023/04/30 05:27:49;;;;;;;11.55;4.88;;;;;;;;;;5007387;28;20088;-79
2023/04/30 05:30:15;;;;;;;8.80;4.80;;;;;;;;;;5007837;28;20121;-79
2023/04/30 05:32:41;;;;;;;7.70;5.05;;;;;;;;;;5007606;28;20046;-79
2023/04/30 05:35:08;;;;;;;7.57;5.25;;;;;;;;;;5009051;28;20773;-79
2023/04/30 05:37:34;;;;;;;9.13;5.50;;;;;;;;;;5006346;28;20034;-78
2023/04/30 05:40:00;;;;;;;7.20;4.68;;;;;;;;;;5003574;28;20045;-79
2023/04/30 05:42:26;;;;;;;6.63;4.65;;;;;;;;;;5009095;28;20405;-79
2023/04/30 05:44:52;;;;;;;9.45;5.10;;;;;;;;;;5009602;28;20046;-79
2023/04/30 05:47:18;;;;;;;9.35;5.13;;;;;;;;;;5003312;28;20133;-79
2023/04/30 05:49:44;;;;;;;7.70;4.80;;;;;;;;;;5008474;28;20137;-79
2023/04/30 05:52:10;;;;;;;8.20;4.60;;;;;;;;;;5004266;28;20076;-79
2023/04/30 05:54:37;;;;;;;9.20;4.82;;;;;;;;;;5021210;28;20046;-79
2023/04/30 05:57:03;;;;;;;8.70;4.80;;;;;;;;;;4990195;28;20534;-79
2023/04/30 05:59:29;;;;;;;8.13;4.85;;;;;;;;;;4969266;28;20066;-79
2023/04/30 06:01:55;;;;;;;10.40;5.10;;;;;;;;;;4986693;28;20046;-79
2023/04/30 06:04:21;;;;;;;9.25;5.30;;;;;;;;;;4987586;28;20046;-79
2023/04/30 06:06:47;;;;;;;12.55;5.28;;;;;;;;;;4971504;28;20050;-79
2023/04/30 06:09:13;;;;;;;10.45;4.88;;;;;;;;;;4986348;28;20046;-79
2023/04/30 06:11:39;;;;;;;9.27;4.35;;;;;;;;;;4973149;28;20046;-79
2023/04/30 06:14:05;;;;;;;8.52;4.68;;;;;;;;;;4982558;28;20517;-79
2023/04/30 06:16:31;;;;;;;8.07;4.57;;;;;;;;;;4971358;28;20463;-79
2023/04/30 06:18:57;;;;;;;7.32;4.55;;;;;;;;;;4969316;28;20054;-79
2023/04/30 06:21:24;;;;;;;11.05;5.13;;;;;;;;;;4973341;28;20054;-79
2023/04/30 06:23:51;;;;;;;9.45;4.63;;;;;;;;;;4967174;28;20058;-79
2023/04/30 06:26:18;;;;;;;8.27;4.35;;;;;;;;;;4986957;28;20390;-79
2023/04/30 06:28:45;;;;;;;7.03;4.30;;;;;;;;;;4984347;28;20511;-79
2023/04/30 06:31:11;;;;;;;7.97;4.45;;;;;;;;;;4967728;28;20502;-79
2023/04/30 06:33:37;;;;;;;8.13;4.43;;;;;;;;;;4973460;28;20046;-79
2023/04/30 06:36:03;;;;;;;8.07;4.38;;;;;;;;;;4988544;28;20049;-78
2023/04/30 06:38:29;;;;;;;7.50;4.30;;;;;;;;;;4986756;28;20042;-78
2023/04/30 06:40:55;;;;;;;8.77;4.25;;;;;;;;;;4971739;28;20097;-78
2023/04/30 06:43:21;;;;;;;7.95;4.70;;;;;;;;;;4970710;28;20061;-79
2023/04/30 06:45:47;;;;;;;9.93;4.28;;;;;;;;;;4987201;28;20046;-78
2023/04/30 06:48:13;;;;;;;14.75;4.65;;;;;;;;;;4982935;28;20050;-79
2023/04/30 06:50:43;;;;;;;7.30;4.68;;;;;;;;;;4965411;28;20380;-79
2023/04/30 06:53:10;;;;;;;8.25;4.15;;;;;;;;;;4972913;28;20054;-78
2023/04/30 06:55:36;;;;;;;10.25;4.68;;;;;;;;;;4980389;28;20454;-78
2023/04/30 06:58:04;;;;;;;6.70;3.97;;;;;;;;;;4990056;28;20466;-78
2023/04/30 07:00:30;;;;;;;8.85;4.32;;;;;;;;;;4967321;28;20080;-78
2023/04/30 07:02:59;;;;;;;7.13;4.32;;;;;;;;;;4971130;28;20054;-79
2023/04/30 07:05:25;;;;;;;8.57;4.50;;;;;;;;;;4985518;28;20051;-79
2023/04/30 07:07:51;;;;;;;5.90;3.65;;;;;;;;;;4966791;28;20087;-79
2023/04/30 07:10:18;;;;;;;8.50;4.20;;;;;;;;;;4985151;28;20587;-79
2023/04/30 07:12:44;;;;;;;9.40;4.45;;;;;;;;;;4979645;28;20065;-78
2023/04/30 07:15:10;;;;;;;7.25;4.22;;;;;;;;;;4962356;28;20549;-79
2023/04/30 07:17:37;;;;;;;7.78;4.82;;;;;;;;;;4973018;28;20050;-78
2023/04/30 07:20:03;;;;;;;7.53;4.10;;;;;;;;;;4980089;28;20046;-78
2023/04/30 07:22:30;;;;;;;6.80;3.63;;;;;;;;;;4968927;28;20442;-78
2023/04/30 07:24:56;;;;;;;8.82;3.80;;;;;;;;;;4994605;28;20045;-78
2023/04/30 07:27:22;;;;;;;8.05;3.95;;;;;;;;;;4978861;28;20038;-78
2023/04/30 07:29:48;;;;;;;5.68;3.45;;;;;;;;;;4972040;28;20047;-79
2023/04/30 07:32:15;;;;;;;8.77;3.30;;;;;;;;;;4970725;28;20062;-78
2023/04/30 07:34:41;;;;;;;11.75;4.00;;;;;;;;;;4988096;28;20045;-79
2023/04/30 07:37:08;;;;;;;9.30;3.28;;;;;;;;;;4985261;28;20048;-78
2023/04/30 07:39:35;;;;;;;8.02;3.22;;;;;;;;;;4984650;28;20077;-79
2023/04/30 07:42:02;;;;;;;7.50;3.05;;;;;;;;;;4966804;28;20058;-79
2023/04/30 07:44:28;;;;;;;10.52;3.45;;;;;;;;;;4969654;28;20047;-79
2023/04/30 07:46:54;;;;;;;7.72;4.00;;;;;;;;;;4980109;28;20046;-78
2023/04/30 07:49:20;;;;;;;7.00;3.78;;;;;;;;;;4971277;28;20090;-79
2023/04/30 07:51:47;;;;;;;5.40;3.25;;;;;;;;;;4971541;28;20094;-79
2023/04/30 07:54:13;;;;;;;5.72;3.20;;;;;;;;;;4962465;28;20069;-79
2023/04/30 07:56:39;;;;;;;5.13;3.17;;;;;;;;;;4980304;28;20049;-79
2023/04/30 07:59:05;;;;;;;6.28;3.38;;;;;;;;;;5000449;28;20046;-79
2023/04/30 08:01:31;;;;;;;7.30;3.40;;;;;;;;;;5001367;28;20049;-79
2023/04/30 08:03:57;;;;;;;4.57;3.15;;;;;;;;;;5005947;28;20038;-79
2023/04/30 08:06:23;;;;;;;5.90;3.15;;;;;;;;;;5006964;28;20165;-78
2023/04/30 08:08:50;;;;;;;6.38;3.42;;;;;;;;;;5005988;28;20042;-79
2023/04/30 08:11:16;;;;;;;7.85;3.30;;;;;;;;;;5001887;28;20050;-78
2023/04/30 08:13:42;;;;;;;8.50;3.58;;;;;;;;;;5004309;28;20050;-79
2023/04/30 08:16:08;;;;;;;7.10;3.58;;;;;;;;;;4998686;28;20038;-79
2023/04/30 08:18:36;;;;;;;6.80;3.90;;;;;;;;;;5009429;28;20517;-78
2023/04/30 08:21:02;;;;;;;9.40;3.50;;;;;;;;;;5003227;28;20046;-77
2023/04/30 08:23:28;;;;;;;7.85;3.80;;;;;;;;;;5004050;28;20053;-78
2023/04/30 08:25:54;;;;;;;7.25;3.20;;;;;;;;;;4992950;28;20078;-78
2023/04/30 08:28:20;;;;;;;6.03;3.50;;;;;;;;;;4961116;28;20125;-78
2023/04/30 08:30:47;;;;;;;9.20;4.00;;;;;;;;;;4959726;28;20497;-79
2023/04/30 08:33:13;;;;;;;8.07;4.35;;;;;;;;;;4966061;28;20518;-79
2023/04/30 08:35:39;;;;;;;10.10;3.58;;;;;;;;;;4961756;28;20059;-78
2023/04/30 08:38:05;;;;;;;8.73;3.63;;;;;;;;;;4959087;28;20109;-79
2023/04/30 08:40:35;;;;;;;7.65;3.47;;;;;;;;;;4964952;28;20042;-79
2023/04/30 08:43:06;;;;;;;8.77;3.38;;;;;;;;;;4965014;28;20450;-79
2023/04/30 08:45:35;;;;;;;8.38;3.75;;;;;;;;;;4973533;28;20051;-79
2023/04/30 08:48:03;;;;;;;8.15;3.22;;;;;;;;;;4967117;28;20061;-78
2023/04/30 08:50:29;;;;;;;4.78;3.30;;;;;;;;;;4964055;28;20410;-78
2023/04/30 08:52:57;;;;;;;6.15;3.00;;;;;;;;;;4959286;28;20043;-78
2023/04/30 08:55:24;;;;;;;5.20;2.72;;;;;;;;;;4962267;28;20364;-78
2023/04/30 08:57:50;;;;;;;7.88;3.28;;;;;;;;;;4979229;28;20050;-77
2023/04/30 09:00:16;;;;;;;4.53;3.13;;;;;;;;;;4976327;28;20650;-76
2023/04/30 09:02:43;;;;;;;7.63;3.83;;;;;;;;;;4982336;28;20050;-77
2023/04/30 09:05:10;;;;;;;6.22;3.70;;;;;;;;;;4968902;28;20451;-76
2023/04/30 09:07:38;;;;;;;6.13;3.40;;;;;;;;;;4971607;28;20133;-77
2023/04/30 09:10:04;;;;;;;11.45;5.63;;;;;;;;;;4971531;28;20050;-77
2023/04/30 09:12:30;;;;;;;9.07;3.72;;;;;;;;;;4980081;28;20078;-78
2023/04/30 09:15:07;;;;;;;10.93;4.15;;;;;;;;;;4981678;28;20081;-78
2023/04/30 09:17:34;;;;;;;6.88;3.60;;;;;;;;;;4968401;28;20399;-79
2023/04/30 09:20:09;;;;;;;7.20;3.63;;;;;;;;;;4962646;28;20125;-78
2023/04/30 09:22:36;;;;;;;6.72;3.08;;;;;;;;;;4985416;28;20109;-78
2023/04/30 09:25:02;;;;;;;4.82;3.22;;;;;;;;;;4968428;28;20049;-78
2023/04/30 09:27:28;;;;;;;8.30;3.80;;;;;;;;;;4969946;28;20051;-78
2023/04/30 09:29:55;;;;;;;6.50;3.35;;;;;;;;;;4963534;28;20053;-78
2023/04/30 09:32:21;;;;;;;5.47;3.60;;;;;;;;;;4965954;28;20062;-79
2023/04/30 09:34:47;;;;;;;7.68;4.03;;;;;;;;;;4978142;28;20050;-79
2023/04/30 09:37:14;;;;;;;7.22;3.35;;;;;;;;;;4980440;28;20121;-78
2023/04/30 09:39:50;;;;;;;5.72;3.20;;;;;;;;;;4984033;28;20050;-78
2023/04/30 09:42:17;;;;;;;7.80;3.53;;;;;;;;;;4964354;28;20193;-78
2023/04/30 09:44:43;;;;;;;5.28;2.80;;;;;;;;;;4985347;28;20038;-79
2023/04/30 09:47:16;;;;;;;5.80;2.92;;;;;;;;;;4980927;28;20047;-79
2023/04/30 09:49:43;;;;;;;5.72;2.50;;;;;;;;;;4961717;28;20517;-78
2023/04/30 09:52:10;;;;;;;5.15;2.92;;;;;;;;;;4984419;28;20456;-78
2023/04/30 09:54:36;;;;;;;8.05;2.92;;;;;;;;;;4967761;28;20125;-78
2023/04/30 09:57:03;;;;;;;6.05;3.22;;;;;;;;;;4981467;28;20414;-78
2023/04/30 09:59:30;;;;;;;6.50;3.63;;;;;;;;;;4982591;28;20050;-78
2023/04/30 10:02:02;;;;;;;6.90;2.90;;;;;;;;;;4968159;28;20081;-79
2023/04/30 10:04:33;;;;;;;7.40;3.25;;;;;;;;;;4982533;28;20066;-78
2023/04/30 10:07:01;;;;;;;3.08;2.58;;;;;;;;;;4967323;28;20042;-78
2023/04/30 10:09:32;;;;;;;5.22;2.97;;;;;;;;;;4968931;28;20053;-78
2023/04/30 10:11:58;;;;;;;4.68;2.65;;;;;;;;;;4984931;28;20490;-78
2023/04/30 10:14:26;;;;;;;4.93;3.00;;;;;;;;;;4984480;28;20046;-78
2023/04/30 10:16:58;;;;;;;5.82;3.20;;;;;;;;;;4967589;28;20050;-78
2023/04/30 10:19:31;;;;;;;6.10;3.28;;;;;;;;;;4984561;28;20110;-78
2023/04/30 10:21:57;;;;;;;6.45;2.88;;;;;;;;;;4971294;28;20410;-78
2023/04/30 10:24:23;;;;;;;5.70;2.90;;;;;;;;;;4964797;28;20062;-79
2023/04/30 10:26:49;;;;;;;9.23;3.58;;;;;;;;;;4968969;28;20053;-79
2023/04/30 10:29:16;;;;;;;6.47;2.92;;;;;;;;;;4978932;28;20043;-79
2023/04/30 10:31:49;;;;;;;6.15;3.10;;;;;;;;;;4974153;28;20038;-79
2023/04/30 10:34:15;;;;;;;4.30;2.95;;;;;;;;;;4990776;28;20100;-79
2023/04/30 10:36:54;;;;;;;5.28;3.00;;;;;;;;;;4991152;28;20446;-78
2023/04/30 10:39:26;;;;;;;7.57;3.28;;;;;;;;;;4968567;28;20043;-79
2023/04/30 10:42:00;;;;;;;5.05;3.20;;;;;;;;;;4968944;28;20516;-79
2023/04/30 10:44:26;;;;;;;5.78;3.10;;;;;;;;;;4971496;28;20054;-79
2023/04/30 10:47:00;;;;;;;6.53;3.20;;;;;;;;;;4987321;28;20565;-86
2023/04/30 10:49:26;;;;;;;5.05;3.08;;;;;;;;;;4979405;28;20054;-79
2023/04/30 10:51:57;;;;;;;4.22;3.20;;;;;;;;;;4972139;28;20069;-80
2023/04/30 10:54:28;;;;;;;4.80;3.10;;;;;;;;;;4986819;28;20049;-80
2023/04/30 10:56:58;;;;;;;5.28;3.13;;;;;;;;;;4969830;28;20051;-79
2023/04/30 10:59:25;;;;;;;5.97;3.65;;;;;;;;;;4969386;28;20518;-79
2023/04/30 11:01:55;;;;;;;4.25;3.10;;;;;;;;;;4969667;28;20085;-80
2023/04/30 11:04:21;;;;;;;5.70;3.20;;;;;;;;;;4968881;28;20502;-80
2023/04/30 11:06:53;;;;;;;5.35;3.30;;;;;;;;;;4964358;28;20051;-79
2023/04/30 11:09:20;;;;;;;9.13;4.40;;;;;;;;;;4969017;28;20046;-79
2023/04/30 11:11:49;;;;;;;7.55;3.63;;;;;;;;;;4972122;28;20046;-79
2023/04/30 11:14:20;;;;;;;5.88;3.72;;;;;;;;;;4970216;28;20568;-79
2023/04/30 11:16:50;;;;;;;4.10;3.03;;;;;;;;;;4966179;28;20069;-80
2023/04/30 11:19:16;;;;;;;5.40;3.13;;;;;;;;;;4969055;28;20514;-79
2023/04/30 11:22:02;;;;;;;7.78;3.20;;;;;;;;;;4971653;28;20046;-79
2023/04/30 11:24:51;;;;;;;6.30;3.30;;;;;;;;;;4954820;28;20495;-79
2023/04/30 11:27:21;;;;;;;8.25;3.72;;;;;;;;;;4962900;28;20117;-80
2023/04/30 11:29:47;;;;;;;4.32;3.10;;;;;;;;;;4971592;28;20079;-80
2023/04/30 11:32:13;;;;;;;4.70;3.05;;;;;;;;;;4967809;28;20073;-80
2023/04/30 11:34:40;;;;;;;4.25;2.70;;;;;;;;;;4970815;28;20046;-79
2023/04/30 11:37:06;;;;;;;4.55;3.08;;;;;;;;;;4965709;28;20047;-78
2023/04/30 11:39:35;;;;;;;3.97;2.92;;;;;;;;;;4965044;28;20054;-78
2023/04/30 11:42:04;;;;;;;6.55;3.13;;;;;;;;;;4967331;28;20088;-78
2023/04/30 11:44:30;;;;;;;5.38;3.10;;;;;;;;;;4967889;28;20128;-78
2023/04/30 11:46:56;;;;;;;3.53;2.70;;;;;;;;;;4963251;28;20435;-78
2023/04/30 11:49:23;;;;;;;4.95;3.10;;;;;;;;;;4964176;28;20043;-78
2023/04/30 11:51:49;;;;;;;5.97;3.30;;;;;;;;;;4968829;28;20051;-78
2023/04/30 11:54:17;;;;;;;3.65;3.13;;;;;;;;;;4968462;28;20097;-78
2023/04/30 11:56:50;;;;;;;3.67;2.65;;;;;;;;;;4971444;28;20050;-78
2023/04/30 11:59:16;;;;;;;5.40;3.33;;;;;;;;;;4967181;28;20057;-78
2023/04/30 12:01:43;;;;;;;4.35;2.97;;;;;;;;;;4986078;28;20084;-78
2023/04/30 12:04:09;;;;;;;3.83;2.75;;;;;;;;;;4988497;28;20340;-78
2023/04/30 12:06:36;;;;;;;4.43;3.22;;;;;;;;;;4982820;28;20051;-78
2023/04/30 12:09:03;;;;;;;4.80;2.83;;;;;;;;;;4986296;28;20046;-78
2023/04/30 12:11:30;;;;;;;5.07;2.95;;;;;;;;;;4986116;28;20449;-78
2023/04/30 12:14:10;;;;;;;4.38;2.70;;;;;;;;;;4988704;28;20038;-80
2023/04/30 12:16:50;;;;;;;5.60;3.03;;;;;;;;;;4989456;28;20050;-79
2023/04/30 12:19:20;;;;;;;3.95;2.85;;;;;;;;;;4986510;28;20057;-79
2023/04/30 12:21:47;;;;;;;4.47;2.72;;;;;;;;;;4980710;28;20050;-80
2023/04/30 12:24:17;;;;;;;3.45;2.70;;;;;;;;;;4968960;28;20047;-79
2023/04/30 12:26:43;;;;;;;3.97;2.90;;;;;;;;;;4968961;28;20138;-79
2023/04/30 12:29:16;;;;;;;4.38;2.80;;;;;;;;;;4983651;28;20043;-79
2023/04/30 12:31:42;;;;;;;5.35;2.83;;;;;;;;;;4963682;28;20057;-79
2023/04/30 12:34:09;;;;;;;4.10;3.30;;;;;;;;;;4967828;28;20133;-79
2023/04/30 12:36:36;;;;;;;6.47;2.97;;;;;;;;;;4987453;28;20064;-79
2023/04/30 12:39:06;;;;;;;4.00;2.90;;;;;;;;;;4972292;28;20073;-79
2023/04/30 12:41:35;;;;;;;5.07;3.13;;;;;;;;;;4988230;28;20042;-79
2023/04/30 12:44:16;;;;;;;3.83;2.80;;;;;;;;;;4990892;28;20038;-79
2023/04/30 12:46:44;;;;;;;3.83;2.80;;;;;;;;;;4988832;28;20089;-79
2023/04/30 12:49:11;;;;;;;4.55;3.17;;;;;;;;;;4971928;28;20078;-79
2023/04/30 12:51:39;;;;;;;5.78;3.83;;;;;;;;;;4972916;28;20105;-80
2023/04/30 12:54:06;;;;;;;6.10;3.20;;;;;;;;;;4971393;28;20137;-80
2023/04/30 12:56:32;;;;;;;6.53;4.05;;;;;;;;;;4987804;28;20061;-79
2023/04/30 12:58:58;;;;;;;6.63;4.03;;;;;;;;;;4989394;28;20121;-80
2023/04/30 13:01:24;;;;;;;5.35;3.85;;;;;;;;;;4989468;28;20437;-79
2023/04/30 13:03:52;;;;;;;7.97;4.32;;;;;;;;;;4972233;28;20042;-80
2023/04/30 13:06:18;;;;;;;8.45;3.88;;;;;;;;;;4971586;28;20062;-79
2023/04/30 13:08:44;;;;;;;7.70;4.15;;;;;;;;;;4987060;28;20375;-79
2023/04/30 13:11:10;;;;;;;8.48;4.30;;;;;;;;;;4987274;28;20045;-79
2023/04/30 13:13:36;;;;;;;6.93;3.78;;;;;;;;;;4987404;28;20053;-80
2023/04/30 13:16:05;;;;;;;6.65;3.63;;;;;;;;;;4972271;28;20125;-79
2023/04/30 13:18:31;;;;;;;5.82;3.80;;;;;;;;;;4990083;28;20050;-80
2023/04/30 13:20:57;;;;;;;6.85;3.65;;;;;;;;;;4989373;28;20042;-79
2023/04/30 13:23:23;;;;;;;6.60;3.75;;;;;;;;;;4983328;28;20549;-80
2023/04/30 13:25:49;;;;;;;7.93;3.90;;;;;;;;;;4987160;28;20054;-80
2023/04/30 13:28:15;;;;;;;5.95;3.90;;;;;;;;;;4970938;28;20046;-80
2023/04/30 13:30:41;;;;;;;5.90;3.83;;;;;;;;;;4971413;28;20053;-80
2023/04/30 13:33:08;;;;;;;5.47;3.90;;;;;;;;;;4984141;28;20042;-80
2023/04/30 13:35:34;;;;;;;7.65;3.97;;;;;;;;;;4989127;28;20406;-80
2023/04/30 13:38:00;;;;;;;7.03;3.80;;;;;;;;;;4972011;28;20487;-80
2023/04/30 13:40:26;;;;;;;6.88;4.05;;;;;;;;;;4987699;28;20131;-79
2023/04/30 13:42:52;;;;;;;9.25;4.28;;;;;;;;;;4982170;28;20507;-80
2023/04/30 13:45:18;;;;;;;4.93;3.65;;;;;;;;;;4979712;28;20388;-80
2023/04/30 13:47:44;;;;;;;6.70;3.90;;;;;;;;;;4975722;28;20084;-80
2023/04/30 13:50:11;;;;;;;6.28;3.90;;;;;;;;;;4972782;28;20054;-80
2023/04/30 13:52:37;;;;;;;5.70;4.00;;;;;;;;;;4993524;28;20057;-80
2023/04/30 13:55:03;;;;;;;6.32;4.10;;;;;;;;;;4988742;28;20125;-80
2023/04/30 13:57:31;;;;;;;7.25;3.90;;;;;;;;;;4992142;28;20072;-80
2023/04/30 13:59:57;;;;;;;4.57;3.85;;;;;;;;;;4968222;28;20104;-80
2023/04/30 14:02:23;;;;;;;6.78;4.10;;;;;;;;;;4969537;28;20062;-80
2023/04/30 14:04:50;;;;;;;6.60;3.50;;;;;;;;;;4976198;28;20130;-74
2023/04/30 14:07:16;;;;;;;6.93;3.97;;;;;;;;;;4986401;28;20046;-83
2023/04/30 14:09:42;;;;;;;4.88;3.40;;;;;;;;;;4983671;28;20069;-83
2023/04/30 14:12:08;;;;;;;5.13;3.47;;;;;;;;;;4972382;28;20050;-85
2023/04/30 14:14:34;;;;;;;5.03;3.65;;;;;;;;;;4994810;28;20034;-86
2023/04/30 14:17:01;;;;;;;7.07;3.90;;;;;;;;;;4970979;28;20410;-86
2023/04/30 14:19:27;;;;;;;6.50;3.47;;;;;;;;;;4970176;28;20398;-84
2023/04/30 14:21:54;;;;;;;6.07;3.63;;;;;;;;;;4971876;28;20043;-84
2023/04/30 14:24:20;;;;;;;7.53;3.80;;;;;;;;;;4970868;28;20046;-82
2023/04/30 14:26:46;;;;;;;8.50;3.38;;;;;;;;;;4987898;28;20038;-81
2023/04/30 14:29:12;;;;;;;5.28;3.42;;;;;;;;;;4988855;28;20042;-81
2023/04/30 14:31:38;;;;;;;5.43;3.30;;;;;;;;;;4972563;28;20061;-81
2023/04/30 14:34:04;;;;;;;6.63;3.17;;;;;;;;;;4963971;28;20046;-84
2023/04/30 14:36:30;;;;;;;11.38;3.30;;;;;;;;;;4974953;28;20050;-82
2023/04/30 14:38:56;;;;;;;5.40;3.05;;;;;;;;;;4970821;28;20043;-82
2023/04/30 14:41:22;;;;;;;4.93;3.00;;;;;;;;;;4987981;28;20499;-83
2023/04/30 14:43:48;;;;;;;4.97;2.80;;;;;;;;;;4960266;28;20078;-82